createdAt,value
2022-10-12T00:00:56.107Z,12.10
2022-10-12T00:03:22.684Z,12.10
2022-10-12T00:05:59.804Z,12.00
2022-10-12T00:08:26.349Z,13.60
2022-10-12T00:10:53.086Z,12.00
2022-10-12T00:13:19.684Z,13.00
2022-10-12T00:15:46.581Z,12.00
2022-10-12T00:18:13.182Z,13.10
2022-10-12T00:20:39.807Z,14.00
2022-10-12T00:23:06.480Z,11.90
2022-10-12T00:25:35.833Z,12.60
2022-10-12T00:28:02.445Z,13.80
2022-10-12T00:30:29.045Z,11.90
2022-10-12T00:32:56.425Z,12.00
2022-10-12T00:35:23.162Z,12.80
2022-10-12T00:37:54.422Z,11.90
2022-10-12T00:40:21.658Z,12.70
2022-10-12T00:42:49.195Z,12.60
2022-10-12T00:45:16.424Z,11.70
2022-10-12T00:47:50.453Z,11.70
2022-10-12T00:50:23.964Z,11.60
2022-10-12T00:53:11.424Z,11.60
2022-10-12T00:55:40.523Z,11.50
2022-10-12T00:58:08.369Z,11.50
2022-10-12T01:00:36.874Z,11.70
2022-10-12T01:03:03.822Z,12.50
2022-10-12T01:05:30.411Z,11.50
2022-10-12T01:07:57.020Z,12.40
2022-10-12T01:10:23.556Z,12.90
2022-10-12T01:12:50.363Z,13.10
2022-10-12T01:15:17.061Z,11.40
2022-10-12T01:18:06.936Z,11.40
2022-10-12T01:20:42.380Z,11.30
2022-10-12T01:23:21.806Z,11.30
2022-10-12T01:26:07.348Z,11.30
2022-10-12T01:28:46.185Z,11.20
2022-10-12T01:31:20.474Z,11.20
2022-10-12T01:34:10.205Z,11.30
2022-10-12T01:36:38.937Z,11.30
2022-10-12T01:39:24.387Z,11.50
2022-10-12T01:41:54.170Z,11.30
2022-10-12T01:44:23.558Z,12.80
2022-10-12T01:46:50.741Z,12.60
2022-10-12T01:49:18.506Z,12.10
2022-10-12T01:52:03.266Z,12.30
2022-10-12T01:54:37.463Z,11.40
2022-10-12T01:57:08.107Z,11.50
2022-10-12T01:59:34.727Z,11.50
2022-10-12T02:02:16.593Z,11.50
2022-10-12T02:04:49.354Z,11.50
2022-10-12T02:07:30.446Z,11.60
2022-10-12T02:09:57.616Z,11.50
2022-10-12T02:12:25.539Z,12.20
2022-10-12T02:14:53.880Z,13.20
2022-10-12T02:17:22.093Z,12.20
2022-10-12T02:19:58.520Z,12.60
2022-10-12T02:22:26.879Z,11.60
2022-10-12T02:24:56.480Z,12.20
2022-10-12T02:27:23.932Z,12.30
2022-10-12T02:29:50.596Z,13.50
2022-10-12T02:32:37.471Z,13.80
2022-10-12T02:35:07.268Z,11.70
2022-10-12T02:37:36.893Z,11.70
2022-10-12T02:40:11.710Z,11.70
2022-10-12T02:43:05.699Z,11.70
2022-10-12T02:45:28.253Z,11.90
2022-10-12T02:47:56.022Z,12.80
2022-10-12T02:50:23.335Z,12.80
2022-10-12T02:52:50.299Z,11.90
2022-10-12T02:55:17.004Z,11.80
2022-10-12T02:57:43.678Z,11.80
2022-10-12T03:00:10.802Z,11.80
2022-10-12T03:02:37.447Z,11.80
2022-10-12T03:05:04.247Z,13.20
2022-10-12T03:07:30.876Z,11.80
2022-10-12T03:09:57.480Z,11.80
2022-10-12T03:12:24.144Z,12.00
2022-10-12T03:14:50.739Z,13.70
2022-10-12T03:17:17.345Z,11.80
2022-10-12T03:19:43.966Z,13.00
2022-10-12T03:22:10.537Z,13.20
2022-10-12T03:24:37.117Z,12.20
2022-10-12T03:27:03.748Z,11.80
2022-10-12T03:29:30.353Z,12.00
2022-10-12T03:31:57.010Z,13.00
2022-10-12T03:34:23.754Z,11.80
2022-10-12T03:36:50.414Z,11.80
2022-10-12T03:39:17.028Z,11.80
2022-10-12T03:41:43.613Z,13.80
2022-10-12T03:44:10.203Z,13.70
2022-10-12T03:46:36.780Z,12.50
2022-10-12T03:49:03.481Z,13.00
2022-10-12T03:51:30.119Z,12.90
2022-10-12T03:53:56.849Z,12.90
2022-10-12T03:56:23.470Z,12.50
2022-10-12T03:58:50.074Z,12.80
2022-10-12T04:01:16.723Z,13.10
2022-10-12T04:03:43.414Z,13.00
2022-10-12T04:06:10.074Z,12.00
2022-10-12T04:08:36.696Z,11.90
2022-10-12T04:11:03.340Z,12.80
2022-10-12T04:13:29.925Z,12.70
2022-10-12T04:16:01.069Z,13.00
2022-10-12T04:18:27.780Z,11.90
2022-10-12T04:20:54.661Z,12.00
2022-10-12T04:23:21.395Z,13.20
2022-10-12T04:25:48.008Z,11.90
2022-10-12T04:28:14.633Z,12.00
2022-10-12T04:30:41.247Z,13.90
2022-10-12T04:33:08.041Z,12.60
2022-10-12T04:35:34.687Z,12.30
2022-10-12T04:38:01.493Z,12.10
2022-10-12T04:40:28.136Z,12.00
2022-10-12T04:42:55.895Z,13.30
2022-10-12T04:45:23.054Z,14.20
2022-10-12T04:47:49.675Z,12.30
2022-10-12T04:50:16.339Z,12.30
2022-10-12T04:52:43.048Z,12.10
2022-10-12T04:55:09.675Z,13.90
2022-10-12T04:57:36.422Z,12.10
2022-10-12T05:00:03.538Z,13.20
2022-10-12T05:02:30.293Z,12.10
2022-10-12T05:04:56.957Z,12.90
2022-10-12T05:07:23.705Z,12.30
2022-10-12T05:09:50.382Z,14.10
2022-10-12T05:12:17.412Z,14.20
2022-10-12T05:14:44.464Z,12.20
2022-10-12T05:17:11.349Z,12.20
2022-10-12T05:19:38.008Z,13.20
2022-10-12T05:22:04.614Z,12.80
2022-10-12T05:24:31.239Z,13.30
2022-10-12T05:26:57.904Z,13.40
2022-10-12T05:29:24.517Z,12.40
2022-10-12T05:31:51.180Z,13.40
2022-10-12T05:34:17.784Z,13.80
2022-10-12T05:36:44.372Z,12.20
2022-10-12T05:39:10.978Z,12.20
2022-10-12T05:41:37.660Z,12.40
2022-10-12T05:44:04.414Z,13.70
2022-10-12T05:46:31.164Z,12.30
2022-10-12T05:48:57.793Z,12.30
2022-10-12T05:51:28.730Z,13.80
2022-10-12T05:53:55.872Z,12.20
2022-10-12T05:56:22.569Z,12.30
2022-10-12T05:58:49.319Z,12.20
2022-10-12T06:01:16.508Z,12.20
2022-10-12T06:03:43.107Z,12.30
2022-10-12T06:06:09.868Z,14.30
2022-10-12T06:08:36.476Z,13.80
2022-10-12T06:11:03.141Z,12.40
2022-10-12T06:13:29.828Z,12.90
2022-10-12T06:15:56.542Z,12.50
2022-10-12T06:18:23.164Z,13.80
2022-10-12T06:20:56.452Z,12.40
2022-10-12T06:23:35.623Z,12.40
2022-10-12T06:26:02.519Z,13.80
2022-10-12T06:28:29.365Z,12.50
2022-10-12T06:30:57.113Z,12.50
2022-10-12T06:33:24.545Z,13.90
2022-10-12T06:35:51.488Z,12.50
2022-10-12T06:38:19.960Z,13.40
2022-10-12T06:40:46.592Z,12.50
2022-10-12T06:43:13.391Z,13.80
2022-10-12T06:45:41.114Z,13.50
2022-10-12T06:48:07.885Z,12.70
2022-10-12T06:50:34.588Z,13.90
2022-10-12T06:53:01.157Z,12.70
2022-10-12T06:55:28.534Z,12.70
2022-10-12T06:57:55.816Z,13.90
2022-10-12T07:00:22.594Z,12.90
2022-10-12T07:02:50.136Z,12.70
2022-10-12T07:05:17.022Z,12.80
2022-10-12T07:07:43.860Z,13.20
2022-10-12T07:10:10.904Z,14.10
2022-10-12T07:12:38.000Z,12.80
2022-10-12T07:15:06.132Z,14.70
2022-10-12T07:17:32.827Z,12.90
2022-10-12T07:19:59.419Z,13.00
2022-10-12T07:22:26.322Z,13.00
2022-10-12T07:24:53.011Z,12.70
2022-10-12T07:27:19.635Z,13.20
2022-10-12T07:29:46.246Z,12.90
2022-10-12T07:32:12.895Z,13.00
2022-10-12T07:34:39.517Z,13.30
2022-10-12T07:37:06.159Z,13.70
2022-10-12T07:39:32.873Z,13.30
2022-10-12T07:41:59.452Z,13.10
2022-10-12T07:44:26.095Z,13.10
2022-10-12T07:46:52.796Z,13.20
2022-10-12T07:49:19.534Z,13.20
2022-10-12T07:51:47.314Z,13.20
2022-10-12T07:54:19.000Z,13.20
2022-10-12T07:56:47.142Z,13.10
2022-10-12T07:59:13.844Z,13.10
2022-10-12T08:01:40.535Z,14.60
2022-10-12T08:04:07.244Z,13.30
2022-10-12T08:06:34.076Z,13.30
2022-10-12T08:09:01.243Z,13.30
2022-10-12T08:11:28.585Z,13.40
2022-10-12T08:13:56.115Z,13.50
2022-10-12T08:16:23.090Z,13.40
2022-10-12T08:18:49.834Z,14.00
2022-10-12T08:21:17.110Z,13.50
2022-10-12T08:23:45.095Z,13.60
2022-10-12T08:26:12.273Z,13.70
2022-10-12T08:28:39.213Z,13.70
2022-10-12T08:31:07.187Z,15.90
2022-10-12T08:33:33.874Z,13.80
2022-10-12T08:36:05.680Z,13.90
2022-10-12T08:38:32.627Z,13.90
2022-10-12T08:41:10.660Z,13.90
2022-10-12T08:43:40.318Z,14.00
2022-10-12T08:46:07.315Z,14.10
2022-10-12T08:48:43.205Z,14.80
2022-10-12T08:51:16.760Z,14.10
2022-10-12T08:53:43.635Z,14.20
2022-10-12T08:56:10.427Z,14.20
2022-10-12T08:58:38.754Z,14.20
2022-10-12T09:01:09.758Z,14.20
2022-10-12T09:03:39.358Z,14.20
2022-10-12T09:06:14.500Z,14.30
2022-10-12T09:08:41.083Z,14.20
2022-10-12T09:11:13.730Z,14.20
2022-10-12T09:14:03.689Z,14.20
2022-10-12T09:16:32.096Z,14.20
2022-10-12T09:19:00.046Z,14.20
2022-10-12T09:21:27.904Z,14.30
2022-10-12T09:23:55.831Z,14.30
2022-10-12T09:26:35.373Z,14.30
2022-10-12T09:29:03.311Z,14.40
2022-10-12T09:31:39.519Z,14.40
2022-10-12T09:34:07.046Z,14.40
2022-10-12T09:36:38.552Z,14.40
2022-10-12T09:39:10.859Z,14.40
2022-10-12T09:41:41.878Z,14.50
2022-10-12T09:44:13.352Z,14.50
2022-10-12T09:46:42.637Z,14.50
2022-10-12T09:49:09.292Z,14.60
2022-10-12T09:51:35.985Z,15.30
2022-10-12T09:54:03.651Z,15.90
2022-10-12T09:56:36.919Z,15.50
2022-10-12T09:59:04.828Z,14.90
2022-10-12T10:01:32.717Z,14.90
2022-10-12T10:04:08.854Z,14.80
2022-10-12T10:06:36.711Z,14.90
2022-10-12T10:09:03.545Z,14.90
2022-10-12T10:11:33.170Z,15.40
2022-10-12T10:14:01.100Z,15.20
2022-10-12T10:16:29.147Z,15.60
2022-10-12T10:18:57.199Z,15.10
2022-10-12T10:21:34.468Z,15.90
2022-10-12T10:24:02.486Z,15.10
2022-10-12T10:26:30.479Z,15.10
2022-10-12T10:29:17.376Z,15.10
2022-10-12T10:31:46.400Z,15.10
2022-10-12T10:34:18.962Z,15.10
2022-10-12T10:36:50.307Z,15.20
2022-10-12T10:39:24.948Z,15.20
2022-10-12T10:41:53.314Z,15.20
2022-10-12T10:44:33.243Z,15.30
2022-10-12T10:47:12.969Z,15.40
2022-10-12T10:49:45.711Z,15.50
2022-10-12T10:52:34.908Z,15.50
2022-10-12T10:55:10.519Z,15.60
2022-10-12T10:57:40.444Z,15.60
2022-10-12T11:00:37.405Z,17.50
2022-10-12T11:03:01.136Z,15.70
2022-10-12T11:05:27.729Z,15.70
2022-10-12T11:07:55.528Z,15.80
2022-10-12T11:10:22.574Z,15.90
2022-10-12T11:12:52.304Z,15.80
2022-10-12T11:15:19.062Z,15.80
2022-10-12T11:17:48.240Z,15.80
2022-10-12T11:20:19.991Z,17.10
2022-10-12T11:22:54.483Z,15.80
2022-10-12T11:25:44.460Z,15.90
2022-10-12T11:28:14.850Z,16.00
2022-10-12T11:30:44.059Z,16.10
2022-10-12T11:33:22.423Z,17.20
2022-10-12T11:35:49.590Z,16.20
2022-10-12T11:38:20.093Z,16.10
2022-10-12T11:41:02.967Z,16.50
2022-10-12T11:43:52.876Z,17.20
2022-10-12T11:46:21.394Z,16.10
2022-10-12T11:48:52.599Z,16.20
2022-10-12T11:51:19.268Z,16.20
2022-10-12T11:53:52.188Z,17.00
2022-10-12T11:56:39.817Z,16.30
2022-10-12T11:59:32.627Z,16.30
2022-10-12T12:02:02.199Z,16.30
2022-10-12T12:04:42.612Z,16.40
2022-10-12T12:07:29.223Z,16.40
2022-10-12T12:09:55.846Z,16.40
2022-10-12T12:12:24.259Z,16.40
2022-10-12T12:14:50.934Z,16.40
2022-10-12T12:17:25.880Z,16.90
2022-10-12T12:19:57.113Z,16.40
2022-10-12T12:22:29.959Z,16.30
2022-10-12T12:25:05.907Z,16.50
2022-10-12T12:27:43.274Z,16.40
2022-10-12T12:30:19.298Z,16.40
2022-10-12T12:32:51.265Z,16.30
2022-10-12T12:35:26.608Z,16.30
2022-10-12T12:38:04.917Z,16.40
2022-10-12T12:40:31.968Z,16.30
2022-10-12T12:43:17.563Z,16.30
2022-10-12T12:45:54.346Z,16.30
2022-10-12T12:48:39.605Z,16.30
2022-10-12T12:51:08.386Z,16.30
2022-10-12T12:53:40.043Z,16.40
2022-10-12T12:56:12.722Z,16.50
2022-10-12T12:58:42.431Z,16.50
2022-10-12T13:01:09.066Z,16.50
2022-10-12T13:03:54.493Z,16.50
2022-10-12T13:06:39.542Z,16.30
2022-10-12T13:09:12.330Z,16.20
2022-10-12T13:11:51.023Z,16.20
2022-10-12T13:14:27.593Z,16.20
2022-10-12T13:17:31.971Z,16.00
2022-10-12T13:19:56.301Z,16.00
2022-10-12T13:22:27.873Z,15.90
2022-10-12T13:24:58.798Z,15.80
2022-10-12T13:27:25.496Z,16.80
2022-10-12T13:29:55.448Z,15.80
2022-10-12T13:32:28.052Z,17.50
2022-10-12T13:34:56.694Z,16.00
2022-10-12T13:37:30.012Z,16.20
2022-10-12T13:39:56.880Z,17.30
2022-10-12T13:42:26.502Z,16.30
2022-10-12T13:44:53.362Z,16.30
2022-10-12T13:47:24.961Z,16.30
2022-10-12T13:49:51.624Z,16.30
2022-10-12T13:52:28.393Z,16.30
2022-10-12T13:54:58.468Z,16.20
2022-10-12T13:57:34.849Z,16.30
2022-10-12T14:00:07.932Z,16.20
2022-10-12T14:02:34.628Z,16.20
2022-10-12T14:05:03.084Z,16.20
2022-10-12T14:07:34.925Z,16.20
2022-10-12T14:10:05.031Z,16.00
2022-10-12T14:12:34.675Z,17.20
2022-10-12T14:15:02.009Z,16.00
2022-10-12T14:17:28.766Z,17.40
2022-10-12T14:19:56.392Z,15.90
2022-10-12T14:22:23.113Z,16.00
2022-10-12T14:24:50.936Z,15.90
2022-10-12T14:27:22.732Z,16.00
2022-10-12T14:29:50.088Z,15.90
2022-10-12T14:32:22.535Z,15.90
2022-10-12T14:34:49.756Z,15.90
2022-10-12T14:37:16.512Z,16.00
2022-10-12T14:39:44.057Z,15.90
2022-10-12T14:42:20.370Z,15.90
2022-10-12T14:44:47.573Z,15.90
2022-10-12T14:47:19.784Z,15.90
2022-10-12T14:49:47.095Z,16.10
2022-10-12T14:52:22.845Z,15.80
2022-10-12T14:54:50.658Z,15.80
2022-10-12T14:57:17.408Z,15.80
2022-10-12T14:59:44.139Z,15.80
2022-10-12T15:02:16.589Z,15.90
2022-10-12T15:04:43.250Z,15.90
2022-10-12T15:07:15.455Z,15.90
2022-10-12T15:09:42.220Z,15.80
2022-10-12T15:12:10.394Z,15.80
2022-10-12T15:14:37.094Z,15.80
2022-10-12T15:17:03.795Z,15.70
2022-10-12T15:19:30.513Z,15.70
2022-10-12T15:21:57.219Z,15.70
2022-10-12T15:24:23.871Z,15.80
2022-10-12T15:26:50.546Z,15.70
2022-10-12T15:29:17.291Z,15.60
2022-10-12T15:31:47.699Z,15.60
2022-10-12T15:34:16.996Z,15.50
2022-10-12T15:36:43.699Z,15.40
2022-10-12T15:39:10.411Z,15.40
2022-10-12T15:41:37.220Z,15.40
2022-10-12T15:44:03.958Z,15.30
2022-10-12T15:46:30.699Z,15.40
2022-10-12T15:48:57.338Z,15.30
2022-10-12T15:51:24.671Z,16.10
2022-10-12T15:53:52.535Z,15.40
2022-10-12T15:56:19.875Z,15.50
2022-10-12T15:58:46.686Z,15.40
2022-10-12T16:01:14.199Z,15.30
2022-10-12T16:03:41.262Z,15.30
2022-10-12T16:06:08.759Z,15.10
2022-10-12T16:08:35.585Z,15.20
2022-10-12T16:11:03.176Z,15.10
2022-10-12T16:13:29.922Z,15.10
2022-10-12T16:15:56.655Z,15.10
2022-10-12T16:18:23.367Z,15.20
2022-10-12T16:20:53.749Z,15.00
2022-10-12T16:23:47.050Z,15.00
2022-10-12T16:26:14.821Z,15.00
2022-10-12T16:28:41.949Z,15.00
2022-10-12T16:31:10.118Z,14.90
2022-10-12T16:33:36.892Z,14.90
2022-10-12T16:36:14.376Z,14.80
2022-10-12T16:38:41.615Z,14.80
2022-10-12T16:41:12.518Z,14.80
2022-10-12T16:43:39.408Z,14.70
2022-10-12T16:46:06.552Z,16.60
2022-10-12T16:48:33.282Z,14.60
2022-10-12T16:50:59.984Z,16.30
2022-10-12T16:53:26.772Z,16.70
2022-10-12T16:55:53.607Z,14.50
2022-10-12T16:58:20.289Z,14.50
2022-10-12T17:00:47.061Z,14.80
2022-10-12T17:03:14.228Z,14.40
2022-10-12T17:05:41.698Z,14.40
2022-10-12T17:08:14.012Z,14.30
2022-10-12T17:10:42.613Z,14.20
2022-10-12T17:13:09.508Z,15.30
2022-10-12T17:15:38.954Z,14.20
2022-10-12T17:18:05.601Z,14.10
2022-10-12T17:20:32.275Z,14.10
2022-10-12T17:22:58.961Z,14.00
2022-10-12T17:25:25.657Z,13.90
2022-10-12T17:27:52.417Z,13.80
2022-10-12T17:30:19.179Z,13.80
2022-10-12T17:32:45.922Z,13.70
2022-10-12T17:35:12.560Z,13.70
2022-10-12T17:37:39.245Z,13.60
2022-10-12T17:40:06.299Z,14.90
2022-10-12T17:42:32.886Z,13.50
2022-10-12T17:44:59.578Z,14.30
2022-10-12T17:47:26.328Z,13.70
2022-10-12T17:49:52.976Z,13.40
2022-10-12T17:52:19.805Z,13.40
2022-10-12T17:54:46.608Z,13.30
2022-10-12T17:57:13.395Z,16.70
2022-10-12T17:59:40.160Z,13.70
2022-10-12T18:02:09.611Z,13.30
2022-10-12T18:04:36.715Z,13.20
2022-10-12T18:07:03.483Z,13.60
2022-10-12T18:09:30.611Z,13.10
2022-10-12T18:11:57.304Z,12.60
2022-10-12T18:14:24.072Z,13.50
2022-10-12T18:16:50.697Z,14.20
2022-10-12T18:19:17.399Z,13.90
2022-10-12T18:21:44.166Z,14.50
2022-10-12T18:24:16.970Z,14.30
2022-10-12T18:26:44.735Z,13.10
2022-10-12T18:29:11.400Z,13.70
2022-10-12T18:31:38.085Z,14.00
2022-10-12T18:34:04.927Z,14.20
2022-10-12T18:36:31.562Z,13.30
2022-10-12T18:38:59.581Z,14.30
2022-10-12T18:41:26.870Z,12.10
2022-10-12T18:44:00.678Z,13.50
2022-10-12T18:46:28.439Z,12.00
2022-10-12T18:48:56.018Z,12.80
2022-10-12T18:51:25.097Z,12.70
2022-10-12T18:53:51.881Z,14.10
2022-10-12T18:56:18.990Z,11.80
2022-10-12T18:58:45.985Z,12.40
2022-10-12T19:01:14.579Z,11.70
2022-10-12T19:03:41.482Z,11.60
2022-10-12T19:06:09.781Z,12.80
2022-10-12T19:08:36.865Z,11.50
2022-10-12T19:11:05.176Z,12.30
2022-10-12T19:13:32.037Z,12.90
2022-10-12T19:16:02.523Z,11.60
2022-10-12T19:18:29.104Z,13.20
2022-10-12T19:20:55.734Z,12.40
2022-10-12T19:23:22.365Z,12.70
2022-10-12T19:25:49.146Z,11.50
2022-10-12T19:28:15.891Z,11.50
2022-10-12T19:30:42.543Z,13.90
2022-10-12T19:33:09.124Z,10.60
2022-10-12T19:35:36.640Z,13.30
2022-10-12T19:38:04.098Z,9.90
2022-10-12T19:40:33.643Z,10.50
2022-10-12T19:43:00.290Z,10.50
2022-10-12T19:45:26.952Z,12.40
2022-10-12T19:47:53.555Z,11.60
2022-10-12T19:50:20.276Z,12.00
2022-10-12T19:52:47.066Z,10.70
2022-10-12T19:55:13.754Z,10.70
2022-10-12T19:57:40.495Z,10.70
2022-10-12T20:00:08.773Z,10.70
2022-10-12T20:02:35.804Z,10.60
2022-10-12T20:05:02.442Z,11.90
2022-10-12T20:07:29.339Z,10.60
2022-10-12T20:09:55.962Z,10.50
2022-10-12T20:12:22.572Z,12.30
2022-10-12T20:14:49.210Z,12.00
2022-10-12T20:17:16.125Z,11.80
2022-10-12T20:19:42.799Z,12.20
2022-10-12T20:22:09.544Z,11.80
2022-10-12T20:24:36.676Z,11.70
2022-10-12T20:27:03.347Z,10.40
2022-10-12T20:29:30.170Z,10.50
2022-10-12T20:31:56.813Z,10.60
2022-10-12T20:34:23.534Z,10.80
2022-10-12T20:36:50.276Z,11.40
2022-10-12T20:39:16.971Z,10.90
2022-10-12T20:41:43.616Z,13.70
2022-10-12T20:44:10.528Z,13.00
2022-10-12T20:46:37.175Z,13.40
2022-10-12T20:49:04.090Z,10.90
2022-10-12T20:51:32.627Z,10.80
2022-10-12T20:54:01.151Z,12.60
2022-10-12T20:56:28.428Z,10.80
2022-10-12T20:58:55.552Z,10.80
2022-10-12T21:01:22.227Z,10.70
2022-10-12T21:03:48.957Z,10.70
2022-10-12T21:06:16.347Z,12.10
2022-10-12T21:08:43.453Z,10.70
2022-10-12T21:11:10.805Z,13.70
2022-10-12T21:13:41.639Z,11.00
2022-10-12T21:16:08.947Z,13.70
2022-10-12T21:18:38.175Z,10.70
2022-10-12T21:21:12.741Z,11.70
2022-10-12T21:23:40.112Z,10.70
2022-10-12T21:26:10.523Z,10.70
2022-10-12T21:28:37.301Z,10.70
2022-10-12T21:31:04.099Z,10.60
2022-10-12T21:33:30.932Z,10.60
2022-10-12T21:36:07.192Z,10.50
2022-10-12T21:38:34.219Z,10.50
2022-10-12T21:41:00.905Z,10.50
2022-10-12T21:43:27.536Z,10.50
2022-10-12T21:45:54.339Z,10.50
2022-10-12T21:48:21.055Z,10.60
2022-10-12T21:50:47.708Z,10.60
2022-10-12T21:53:14.457Z,11.40
2022-10-12T21:55:41.084Z,10.50
2022-10-12T21:58:07.668Z,12.30
2022-10-12T22:00:34.358Z,11.70
2022-10-12T22:03:01.057Z,10.30
2022-10-12T22:05:27.986Z,10.20
2022-10-12T22:07:54.614Z,11.80
2022-10-12T22:10:21.282Z,10.40
2022-10-12T22:12:47.937Z,9.90
2022-10-12T22:15:14.574Z,9.90
2022-10-12T22:17:41.351Z,10.40
2022-10-12T22:20:08.219Z,11.60
2022-10-12T22:22:34.857Z,9.70
2022-10-12T22:25:01.502Z,10.90
2022-10-12T22:27:28.836Z,10.00
2022-10-12T22:29:57.785Z,10.90
2022-10-12T22:32:24.543Z,9.50
2022-10-12T22:34:51.249Z,11.80
2022-10-12T22:37:17.988Z,12.30
2022-10-12T22:39:44.864Z,9.60
2022-10-12T22:42:11.513Z,9.80
2022-10-12T22:44:38.208Z,11.30
2022-10-12T22:47:04.955Z,13.10
2022-10-12T22:49:31.641Z,9.90
2022-10-12T22:51:58.268Z,11.50
2022-10-12T22:54:24.900Z,10.00
2022-10-12T22:56:51.577Z,12.10
2022-10-12T22:59:18.327Z,13.00
2022-10-12T23:01:45.209Z,9.80
2022-10-12T23:04:11.869Z,10.20
2022-10-12T23:06:38.513Z,10.10
2022-10-12T23:09:05.248Z,10.10
2022-10-12T23:11:32.156Z,11.40
2022-10-12T23:13:58.861Z,11.80
2022-10-12T23:16:30.026Z,12.10
2022-10-12T23:18:59.450Z,12.50
2022-10-12T23:21:27.181Z,9.90
2022-10-12T23:23:53.818Z,12.40
2022-10-12T23:26:21.342Z,12.00
2022-10-12T23:28:48.789Z,10.40
2022-10-12T23:31:16.698Z,11.90
2022-10-12T23:33:43.467Z,10.50
2022-10-12T23:36:14.190Z,10.60
2022-10-12T23:38:42.019Z,10.70
2022-10-12T23:41:08.962Z,11.00
2022-10-12T23:43:35.956Z,14.30
2022-10-12T23:46:03.366Z,12.00
2022-10-12T23:48:30.069Z,13.70
2022-10-12T23:50:56.891Z,12.80
2022-10-12T23:53:24.326Z,13.20
2022-10-12T23:55:51.297Z,14.00
2022-10-12T23:58:18.079Z,11.40
